sensor_id;sensor_type;location;lat;lon;timestamp;pressure;altitude;pressure_sealevel;temperature;humidity
80180;BME280;69505;52.134;5.438;2023-05-27T00:02:13;103178.03;;;8.30;78.78
80180;BME280;69505;52.134;5.438;2023-05-27T00:04:40;103175.63;;;8.21;79.60
80180;BME280;69505;52.134;5.438;2023-05-27T00:07:07;103184.53;;;8.18;79.60
80180;BME280;69505;52.134;5.438;2023-05-27T00:09:34;103182.81;;;8.17;79.72
80180;BME280;69505;52.134;5.438;2023-05-27T00:12:01;103175.91;;;8.11;79.62
80180;BME280;69505;52.134;5.438;2023-05-27T00:14:28;103183.84;;;8.11;79.89
80180;BME280;69505;52.134;5.438;2023-05-27T00:16:55;103185.72;;;8.08;80.25
80180;BME280;69505;52.134;5.438;2023-05-27T00:19:22;103172.56;;;8.05;80.44
80180;BME280;69505;52.134;5.438;2023-05-27T00:21:50;103178.88;;;8.01;79.96
80180;BME280;69505;52.134;5.438;2023-05-27T00:24:19;103179.81;;;7.98;79.98
80180;BME280;69505;52.134;5.438;2023-05-27T00:26:46;103171.09;;;7.95;80.41
80180;BME280;69505;52.134;5.438;2023-05-27T00:29:15;103174.72;;;7.92;80.87
80180;BME280;69505;52.134;5.438;2023-05-27T00:31:42;103173.91;;;7.88;80.66
80180;BME280;69505;52.134;5.438;2023-05-27T00:34:09;103173.91;;;7.88;80.61
80180;BME280;69505;52.134;5.438;2023-05-27T00:36:35;103167.81;;;7.85;80.62
80180;BME280;69505;52.134;5.438;2023-05-27T00:39:02;103167.25;;;7.75;81.28
80180;BME280;69505;52.134;5.438;2023-05-27T00:41:29;103158.53;;;7.70;81.61
80180;BME280;69505;52.134;5.438;2023-05-27T00:43:56;103161.28;;;7.67;81.48
80180;BME280;69505;52.134;5.438;2023-05-27T00:46:23;103156.06;;;7.64;81.92
80180;BME280;69505;52.134;5.438;2023-05-27T00:48:50;103164.06;;;7.62;81.67
80180;BME280;69505;52.134;5.438;2023-05-27T00:51:16;103161.44;;;7.61;81.83
80180;BME280;69505;52.134;5.438;2023-05-27T00:53:43;103149.19;;;7.58;82.25
80180;BME280;69505;52.134;5.438;2023-05-27T00:56:11;103157.88;;;7.62;81.86
80180;BME280;69505;52.134;5.438;2023-05-27T00:58:39;103149.94;;;7.62;82.05
80180;BME280;69505;52.134;5.438;2023-05-27T01:01:06;103157.03;;;7.60;81.50
80180;BME280;69505;52.134;5.438;2023-05-27T01:03:33;103138.69;;;7.53;82.09
80180;BME280;69505;52.134;5.438;2023-05-27T01:06:24;103140.59;;;7.50;82.00
80180;BME280;69505;52.134;5.438;2023-05-27T01:11:32;103143.28;;;7.47;82.80
80180;BME280;69505;52.134;5.438;2023-05-27T01:14:05;103143.38;;;7.44;83.25
80180;BME280;69505;52.134;5.438;2023-05-27T01:16:37;103151.38;;;7.41;83.11
80180;BME280;69505;52.134;5.438;2023-05-27T01:19:13;103152.34;;;7.38;82.63
80180;BME280;69505;52.134;5.438;2023-05-27T01:21:42;103145.38;;;7.34;82.99
80180;BME280;69505;52.134;5.438;2023-05-27T01:24:12;103150.66;;;7.36;83.36
80180;BME280;69505;52.134;5.438;2023-05-27T01:26:40;103151.63;;;7.31;83.07
80180;BME280;69505;52.134;5.438;2023-05-27T01:29:07;103147.28;;;7.29;83.19
80180;BME280;69505;52.134;5.438;2023-05-27T01:31:41;103148.16;;;7.29;83.96
80180;BME280;69505;52.134;5.438;2023-05-27T01:34:10;103143.84;;;7.25;83.51
80180;BME280;69505;52.134;5.438;2023-05-27T01:36:45;103146.50;;;7.25;83.48
80180;BME280;69505;52.134;5.438;2023-05-27T01:39:14;103143.91;;;7.22;83.46
80180;BME280;69505;52.134;5.438;2023-05-27T01:41:45;103146.66;;;7.19;83.73
80180;BME280;69505;52.134;5.438;2023-05-27T01:44:14;103139.66;;;7.18;83.70
80180;BME280;69505;52.134;5.438;2023-05-27T01:46:44;103143.22;;;7.16;84.04
80180;BME280;69505;52.134;5.438;2023-05-27T01:49:11;103145.00;;;7.15;84.64
80180;BME280;69505;52.134;5.438;2023-05-27T01:51:37;103136.25;;;7.11;84.74
80180;BME280;69505;52.134;5.438;2023-05-27T01:54:04;103135.44;;;7.09;84.38
80180;BME280;69505;52.134;5.438;2023-05-27T01:56:31;103141.69;;;7.05;85.33
80180;BME280;69505;52.134;5.438;2023-05-27T01:58:57;103141.81;;;7.01;84.83
80180;BME280;69505;52.134;5.438;2023-05-27T02:01:24;103148.03;;;7.00;85.17
80180;BME280;69505;52.134;5.438;2023-05-27T02:03:51;103156.94;;;6.96;84.75
80180;BME280;69505;52.134;5.438;2023-05-27T02:06:18;103148.16;;;6.94;85.33
80180;BME280;69505;52.134;5.438;2023-05-27T02:08:44;103149.06;;;6.93;85.21
80180;BME280;69505;52.134;5.438;2023-05-27T02:11:11;103158.88;;;6.87;85.25
80180;BME280;69505;52.134;5.438;2023-05-27T02:13:37;103154.47;;;6.86;86.19
80180;BME280;69505;52.134;5.438;2023-05-27T02:16:04;103160.59;;;6.88;86.62
80180;BME280;69505;52.134;5.438;2023-05-27T02:18:31;103156.38;;;6.81;85.93
80180;BME280;69505;52.134;5.438;2023-05-27T02:20:57;103156.28;;;6.84;85.34
80180;BME280;69505;52.134;5.438;2023-05-27T02:23:24;103152.03;;;6.79;85.88
80180;BME280;69505;52.134;5.438;2023-05-27T02:25:51;103146.81;;;6.76;86.19
80180;BME280;69505;52.134;5.438;2023-05-27T02:28:18;103153.88;;;6.75;86.40
80180;BME280;69505;52.134;5.438;2023-05-27T02:30:44;103153.03;;;6.73;86.31
80180;BME280;69505;52.134;5.438;2023-05-27T02:33:11;103140.75;;;6.72;86.21
80180;BME280;69505;52.134;5.438;2023-05-27T02:35:37;103145.22;;;6.70;85.97
80180;BME280;69505;52.134;5.438;2023-05-27T02:38:04;103130.38;;;6.64;86.34
80180;BME280;69505;52.134;5.438;2023-05-27T02:40:31;103136.53;;;6.63;86.82
80180;BME280;69505;52.134;5.438;2023-05-27T02:42:57;103145.41;;;6.61;86.35
80180;BME280;69505;52.134;5.438;2023-05-27T02:45:24;103142.84;;;6.58;87.02
80180;BME280;69505;52.134;5.438;2023-05-27T02:47:51;103142.91;;;6.55;87.25
80180;BME280;69505;52.134;5.438;2023-05-27T02:50:18;103132.47;;;6.48;87.53
80180;BME280;69505;52.134;5.438;2023-05-27T02:52:44;103133.41;;;6.47;87.06
80180;BME280;69505;52.134;5.438;2023-05-27T02:55:11;103131.69;;;6.45;87.26
80180;BME280;69505;52.134;5.438;2023-05-27T02:57:37;103133.44;;;6.44;87.37
80180;BME280;69505;52.134;5.438;2023-05-27T03:00:05;103138.81;;;6.41;87.81
80180;BME280;69505;52.134;5.438;2023-05-27T03:02:31;103141.44;;;6.41;87.30
80180;BME280;69505;52.134;5.438;2023-05-27T03:04:58;103139.88;;;6.33;87.65
80180;BME280;69505;52.134;5.438;2023-05-27T03:07:27;103131.25;;;6.24;87.77
80180;BME280;69505;52.134;5.438;2023-05-27T03:09:57;103144.31;;;6.32;87.83
80180;BME280;69505;52.134;5.438;2023-05-27T03:12:24;103150.53;;;6.28;87.68
80180;BME280;69505;52.134;5.438;2023-05-27T03:14:51;103147.91;;;6.28;87.40
80180;BME280;69505;52.134;5.438;2023-05-27T03:17:19;103147.09;;;6.24;87.83
80180;BME280;69505;52.134;5.438;2023-05-27T03:19:46;103137.50;;;6.20;88.34
80180;BME280;69505;52.134;5.438;2023-05-27T03:22:12;103148.91;;;6.22;88.19
80180;BME280;69505;52.134;5.438;2023-05-27T03:24:39;103149.84;;;6.18;87.78
80180;BME280;69505;52.134;5.438;2023-05-27T03:27:06;103150.72;;;6.19;88.16
80180;BME280;69505;52.134;5.438;2023-05-27T03:29:33;103148.03;;;6.22;88.56
80180;BME280;69505;52.134;5.438;2023-05-27T03:32:00;103141.03;;;6.19;88.55
80180;BME280;69505;52.134;5.438;2023-05-27T03:34:26;103141.13;;;6.15;88.74
80180;BME280;69505;52.134;5.438;2023-05-27T03:36:53;103142.94;;;6.13;88.43
80180;BME280;69505;52.134;5.438;2023-05-27T03:39:20;103137.75;;;6.08;88.33
80180;BME280;69505;52.134;5.438;2023-05-27T03:41:46;103127.22;;;6.06;88.64
80180;BME280;69505;52.134;5.438;2023-05-27T03:44:13;103133.41;;;6.05;89.17
80180;BME280;69505;52.134;5.438;2023-05-27T03:46:40;103133.41;;;6.05;89.16
80180;BME280;69505;52.134;5.438;2023-05-27T03:49:06;103126.34;;;6.07;88.59
80180;BME280;69505;52.134;5.438;2023-05-27T03:51:33;103131.53;;;6.10;89.21
80180;BME280;69505;52.134;5.438;2023-05-27T03:54:00;103124.47;;;6.13;89.09
80180;BME280;69505;52.134;5.438;2023-05-27T03:56:26;103117.41;;;6.13;88.51
80180;BME280;69505;52.134;5.438;2023-05-27T03:58:53;103120.97;;;6.12;88.70
80180;BME280;69505;52.134;5.438;2023-05-27T04:01:20;103115.78;;;6.07;88.32
80180;BME280;69505;52.134;5.438;2023-05-27T04:03:47;103114.03;;;6.06;88.96
80180;BME280;69505;52.134;5.438;2023-05-27T04:06:13;103119.25;;;6.09;89.55
80180;BME280;69505;52.134;5.438;2023-05-27T04:08:40;103115.69;;;6.12;89.85
80180;BME280;69505;52.134;5.438;2023-05-27T04:11:11;103118.34;;;6.10;89.68
80180;BME280;69505;52.134;5.438;2023-05-27T04:13:41;103119.19;;;6.13;89.56
80180;BME280;69505;52.134;5.438;2023-05-27T04:16:07;103123.56;;;6.14;89.59
80180;BME280;69505;52.134;5.438;2023-05-27T04:18:34;103110.38;;;6.14;89.43
80180;BME280;69505;52.134;5.438;2023-05-27T04:21:02;103109.44;;;6.16;89.58
80180;BME280;69505;52.134;5.438;2023-05-27T04:23:28;103106.81;;;6.16;89.25
80180;BME280;69505;52.134;5.438;2023-05-27T04:25:55;103112.91;;;6.18;89.61
80180;BME280;69505;52.134;5.438;2023-05-27T04:28:21;103115.44;;;6.23;89.27
80180;BME280;69505;52.134;5.438;2023-05-27T04:30:48;103117.97;;;6.27;89.21
80180;BME280;69505;52.134;5.438;2023-05-27T04:33:16;103118.78;;;6.31;89.19
80180;BME280;69505;52.134;5.438;2023-05-27T04:35:43;103106.53;;;6.30;88.99
80180;BME280;69505;52.134;5.438;2023-05-27T04:38:11;103111.69;;;6.35;89.37
80180;BME280;69505;52.134;5.438;2023-05-27T04:40:43;103115.09;;;6.38;89.89
80180;BME280;69505;52.134;5.438;2023-05-27T04:43:12;103114.19;;;6.41;89.32
80180;BME280;69505;52.134;5.438;2023-05-27T04:45:40;103115.78;;;6.48;88.89
80180;BME280;69505;52.134;5.438;2023-05-27T04:48:09;103119.13;;;6.56;89.05
80180;BME280;69505;52.134;5.438;2023-05-27T04:50:37;103112.00;;;6.60;89.45
80180;BME280;69505;52.134;5.438;2023-05-27T04:53:03;103106.63;;;6.63;89.67
80180;BME280;69505;52.134;5.438;2023-05-27T04:55:33;103103.94;;;6.66;88.93
80180;BME280;69505;52.134;5.438;2023-05-27T04:58:00;103100.38;;;6.67;88.69
80180;BME280;69505;52.134;5.438;2023-05-27T05:00:30;103106.31;;;6.77;89.18
80180;BME280;69505;52.134;5.438;2023-05-27T05:03:05;103107.88;;;6.84;88.51
80180;BME280;69505;52.134;5.438;2023-05-27T05:05:34;103102.50;;;6.88;88.63
80180;BME280;69505;52.134;5.438;2023-05-27T05:08:01;103097.13;;;6.93;89.10
80180;BME280;69505;52.134;5.438;2023-05-27T05:10:28;103097.81;;;7.00;88.68
80180;BME280;69505;52.134;5.438;2023-05-27T05:12:55;103099.38;;;7.08;88.82
80180;BME280;69505;52.134;5.438;2023-05-27T05:15:22;103100.94;;;7.16;88.38
80180;BME280;69505;52.134;5.438;2023-05-27T05:17:49;103104.28;;;7.22;88.83
80180;BME280;69505;52.134;5.438;2023-05-27T05:20:16;103095.31;;;7.28;88.09
80180;BME280;69505;52.134;5.438;2023-05-27T05:22:43;103104.84;;;7.35;88.25
80180;BME280;69505;52.134;5.438;2023-05-27T05:25:09;103108.16;;;7.43;88.23
80180;BME280;69505;52.134;5.438;2023-05-27T05:27:36;103097.38;;;7.49;88.05
80180;BME280;69505;52.134;5.438;2023-05-27T05:30:04;103093.69;;;7.57;87.64
80180;BME280;69505;52.134;5.438;2023-05-27T05:32:31;103089.03;;;7.65;87.41
80180;BME280;69505;52.134;5.438;2023-05-27T05:34:58;103080.94;;;7.71;87.74
80180;BME280;69505;52.134;5.438;2023-05-27T05:37:24;103079.88;;;7.77;87.70
80180;BME280;69505;52.134;5.438;2023-05-27T05:39:53;103083.16;;;7.85;87.71
80180;BME280;69505;52.134;5.438;2023-05-27T05:42:20;103079.44;;;7.92;86.65
80180;BME280;69505;52.134;5.438;2023-05-27T05:44:46;103080.13;;;7.99;87.05
80180;BME280;69505;52.134;5.438;2023-05-27T05:47:13;103080.00;;;8.03;86.43
80180;BME280;69505;52.134;5.438;2023-05-27T05:49:39;103080.63;;;8.11;86.09
80180;BME280;69505;52.134;5.438;2023-05-27T05:52:06;103080.34;;;8.21;86.02
80180;BME280;69505;52.134;5.438;2023-05-27T05:54:33;103085.41;;;8.28;86.49
80180;BME280;69505;52.134;5.438;2023-05-27T05:57:00;103084.28;;;8.36;85.94
80180;BME280;69505;52.134;5.438;2023-05-27T05:59:27;103084.09;;;8.43;85.92
80180;BME280;69505;52.134;5.438;2023-05-27T06:01:54;103088.19;;;8.53;85.70
80180;BME280;69505;52.134;5.438;2023-05-27T06:04:21;103078.22;;;8.62;85.54
80180;BME280;69505;52.134;5.438;2023-05-27T06:06:47;103072.59;;;8.71;85.12
80180;BME280;69505;52.134;5.438;2023-05-27T06:09:14;103079.34;;;8.81;84.80
80180;BME280;69505;52.134;5.438;2023-05-27T06:11:41;103078.22;;;8.88;84.58
80180;BME280;69505;52.134;5.438;2023-05-27T06:14:08;103070.88;;;8.97;84.97
80180;BME280;69505;52.134;5.438;2023-05-27T06:16:34;103070.66;;;9.03;84.38
80180;BME280;69505;52.134;5.438;2023-05-27T06:19:06;103060.56;;;9.14;83.88
80180;BME280;69505;52.134;5.438;2023-05-27T06:21:32;103061.09;;;9.24;84.48
80180;BME280;69505;52.134;5.438;2023-05-27T06:24:00;103057.28;;;9.32;84.14
80180;BME280;69505;52.134;5.438;2023-05-27T06:26:26;103045.34;;;9.44;84.03
80180;BME280;69505;52.134;5.438;2023-05-27T06:28:54;103045.00;;;9.53;83.94
80180;BME280;69505;52.134;5.438;2023-05-27T06:31:20;103037.38;;;9.68;83.67
80180;BME280;69505;52.134;5.438;2023-05-27T06:33:47;103030.13;;;9.73;82.95
80180;BME280;69505;52.134;5.438;2023-05-27T06:36:13;103037.63;;;9.85;83.34
80180;BME280;69505;52.134;5.438;2023-05-27T06:38:40;103034.59;;;9.94;82.76
80180;BME280;69505;52.134;5.438;2023-05-27T06:41:06;103034.28;;;10.04;82.77
80180;BME280;69505;52.134;5.438;2023-05-27T06:43:34;103042.78;;;10.12;81.79
80180;BME280;69505;52.134;5.438;2023-05-27T06:46:00;103039.72;;;10.23;81.65
80180;BME280;69505;52.134;5.438;2023-05-27T06:48:30;103028.59;;;10.35;82.53
80180;BME280;69505;52.134;5.438;2023-05-27T06:50:57;103034.31;;;10.48;80.72
80180;BME280;69505;52.134;5.438;2023-05-27T06:53:24;103031.22;;;10.59;81.12
80180;BME280;69505;52.134;5.438;2023-05-27T06:55:51;103036.00;;;10.71;80.01
80180;BME280;69505;52.134;5.438;2023-05-27T06:58:17;103034.88;;;10.76;80.43
80180;BME280;69505;52.134;5.438;2023-05-27T07:00:44;103017.59;;;10.87;79.65
80180;BME280;69505;52.134;5.438;2023-05-27T07:03:11;103017.13;;;10.97;78.79
80180;BME280;69505;52.134;5.438;2023-05-27T07:05:37;103017.47;;;11.10;78.98
80180;BME280;69505;52.134;5.438;2023-05-27T07:08:05;103010.88;;;11.19;78.01
80180;BME280;69505;52.134;5.438;2023-05-27T07:10:32;102999.69;;;11.31;78.35
80180;BME280;69505;52.134;5.438;2023-05-27T07:12:58;103004.44;;;11.44;77.96
80180;BME280;69505;52.134;5.438;2023-05-27T07:15:25;103008.31;;;11.57;77.99
80180;BME280;69505;52.134;5.438;2023-05-27T07:17:53;103003.03;;;11.74;77.28
80180;BME280;69505;52.134;5.438;2023-05-27T07:20:20;103000.72;;;11.86;76.65
80180;BME280;69505;52.134;5.438;2023-05-27T07:22:47;103006.81;;;11.89;75.12
80180;BME280;69505;52.134;5.438;2023-05-27T07:25:13;103007.16;;;12.01;75.46
80180;BME280;69505;52.134;5.438;2023-05-27T07:27:40;103008.38;;;12.12;75.24
80180;BME280;69505;52.134;5.438;2023-05-27T07:30:07;103000.47;;;12.28;74.42
80180;BME280;69505;52.134;5.438;2023-05-27T07:32:34;103001.88;;;12.72;75.22
80180;BME280;69505;52.134;5.438;2023-05-27T07:35:01;102990.44;;;14.94;66.87
80180;BME280;69505;52.134;5.438;2023-05-27T07:37:27;102986.53;;;17.06;58.07
80180;BME280;69505;52.134;5.438;2023-05-27T07:39:56;102995.84;;;18.84;52.85
80180;BME280;69505;52.134;5.438;2023-05-27T07:42:22;102988.84;;;19.95;49.68
80180;BME280;69505;52.134;5.438;2023-05-27T07:44:50;102989.09;;;20.67;46.50
80180;BME280;69505;52.134;5.438;2023-05-27T07:47:16;102980.53;;;21.14;47.06
80180;BME280;69505;52.134;5.438;2023-05-27T07:49:43;102974.69;;;22.19;44.40
80180;BME280;69505;52.134;5.438;2023-05-27T07:52:09;102979.72;;;22.43;44.13
80180;BME280;69505;52.134;5.438;2023-05-27T07:54:36;102983.81;;;21.99;43.60
80180;BME280;69505;52.134;5.438;2023-05-27T07:57:12;102966.72;;;22.08;41.74
80180;BME280;69505;52.134;5.438;2023-05-27T07:59:40;102972.28;;;22.75;44.06
80180;BME280;69505;52.134;5.438;2023-05-27T08:02:10;102959.22;;;23.07;41.54
80180;BME280;69505;52.134;5.438;2023-05-27T08:04:37;102957.03;;;23.76;39.50
80180;BME280;69505;52.134;5.438;2023-05-27T08:07:03;102955.41;;;24.37;37.94
80180;BME280;69505;52.134;5.438;2023-05-27T08:09:30;102952.63;;;24.11;39.26
80180;BME280;69505;52.134;5.438;2023-05-27T08:11:58;102949.97;;;25.07;37.50
80180;BME280;69505;52.134;5.438;2023-05-27T08:14:25;102949.66;;;24.58;37.39
80180;BME280;69505;52.134;5.438;2023-05-27T08:16:54;102932.28;;;24.33;36.99
80180;BME280;69505;52.134;5.438;2023-05-27T08:19:21;102933.41;;;22.27;40.88
80180;BME280;69505;52.134;5.438;2023-05-27T08:21:48;102919.34;;;23.18;40.23
80180;BME280;69505;52.134;5.438;2023-05-27T08:24:14;102921.69;;;23.13;40.19
80180;BME280;69505;52.134;5.438;2023-05-27T08:26:41;102926.59;;;21.43;41.51
80180;BME280;69505;52.134;5.438;2023-05-27T08:29:07;102928.16;;;20.75;44.55
80180;BME280;69505;52.134;5.438;2023-05-27T08:31:34;102926.66;;;21.73;42.92
80180;BME280;69505;52.134;5.438;2023-05-27T08:34:01;102920.66;;;22.66;41.50
80180;BME280;69505;52.134;5.438;2023-05-27T08:36:27;102917.50;;;22.81;41.67
80180;BME280;69505;52.134;5.438;2023-05-27T08:38:54;102920.72;;;23.04;41.75
80180;BME280;69505;52.134;5.438;2023-05-27T08:41:21;102917.75;;;23.53;38.41
80180;BME280;69505;52.134;5.438;2023-05-27T08:43:48;102913.72;;;23.75;39.52
80180;BME280;69505;52.134;5.438;2023-05-27T08:46:15;102905.06;;;24.07;39.92
80180;BME280;69505;52.134;5.438;2023-05-27T08:48:43;102900.84;;;23.59;39.14
80180;BME280;69505;52.134;5.438;2023-05-27T08:51:09;102899.44;;;24.00;37.40
80180;BME280;69505;52.134;5.438;2023-05-27T08:53:37;102901.88;;;23.94;40.02
80180;BME280;69505;52.134;5.438;2023-05-27T08:56:04;102894.06;;;24.79;36.92
80180;BME280;69505;52.134;5.438;2023-05-27T08:58:34;102882.59;;;24.67;35.70
80180;BME280;69505;52.134;5.438;2023-05-27T09:01:01;102886.78;;;25.22;37.29
80180;BME280;69505;52.134;5.438;2023-05-27T09:03:28;102885.72;;;25.82;36.00
80180;BME280;69505;52.134;5.438;2023-05-27T09:05:55;102882.28;;;25.55;34.93
80180;BME280;69505;52.134;5.438;2023-05-27T09:08:22;102871.94;;;25.08;34.83
80180;BME280;69505;52.134;5.438;2023-05-27T09:10:57;102866.63;;;25.57;36.05
80180;BME280;69505;52.134;5.438;2023-05-27T09:13:28;102869.66;;;25.38;35.40
80180;BME280;69505;52.134;5.438;2023-05-27T09:16:00;102870.81;;;25.27;36.87
80180;BME280;69505;52.134;5.438;2023-05-27T09:18:32;102860.66;;;25.37;35.39
80180;BME280;69505;52.134;5.438;2023-05-27T09:20:59;102869.31;;;25.41;35.89
80180;BME280;69505;52.134;5.438;2023-05-27T09:23:25;102859.75;;;24.51;36.17
80180;BME280;69505;52.134;5.438;2023-05-27T09:25:52;102859.06;;;24.05;37.93
80180;BME280;69505;52.134;5.438;2023-05-27T09:28:23;102855.78;;;24.46;37.82
80180;BME280;69505;52.134;5.438;2023-05-27T09:31:01;102858.50;;;24.46;36.59
80180;BME280;69505;52.134;5.438;2023-05-27T09:33:33;102857.50;;;24.47;38.19
80180;BME280;69505;52.134;5.438;2023-05-27T09:36:01;102847.16;;;24.24;35.60
80180;BME280;69505;52.134;5.438;2023-05-27T09:38:29;102848.44;;;24.38;37.60
80180;BME280;69505;52.134;5.438;2023-05-27T09:41:00;102847.16;;;23.80;37.77
80180;BME280;69505;52.134;5.438;2023-05-27T09:43:28;102843.31;;;24.35;38.31
80180;BME280;69505;52.134;5.438;2023-05-27T09:46:03;102839.28;;;24.13;38.38
80180;BME280;69505;52.134;5.438;2023-05-27T09:48:31;102843.81;;;22.95;41.00
80180;BME280;69505;52.134;5.438;2023-05-27T09:50:59;102838.44;;;23.59;40.19
80180;BME280;69505;52.134;5.438;2023-05-27T09:53:26;102833.22;;;24.19;39.24
80180;BME280;69505;52.134;5.438;2023-05-27T09:55:53;102835.03;;;23.93;38.91
80180;BME280;69505;52.134;5.438;2023-05-27T09:58:22;102831.91;;;24.05;37.98
80180;BME280;69505;52.134;5.438;2023-05-27T10:00:50;102835.19;;;23.73;37.75
80180;BME280;69505;52.134;5.438;2023-05-27T10:03:20;102826.56;;;23.60;39.40
80180;BME280;69505;52.134;5.438;2023-05-27T10:05:49;102823.75;;;23.16;38.87
80180;BME280;69505;52.134;5.438;2023-05-27T10:08:16;102819.81;;;23.10;39.90
80180;BME280;69505;52.134;5.438;2023-05-27T10:10:49;102819.84;;;22.90;39.44
80180;BME280;69505;52.134;5.438;2023-05-27T10:13:18;102815.78;;;22.49;42.37
80180;BME280;69505;52.134;5.438;2023-05-27T10:15:47;102813.66;;;22.43;39.16
80180;BME280;69505;52.134;5.438;2023-05-27T10:18:26;102815.34;;;22.81;39.30
80180;BME280;69505;52.134;5.438;2023-05-27T10:20:56;102803.22;;;23.13;40.26
80180;BME280;69505;52.134;5.438;2023-05-27T10:23:25;102801.44;;;23.04;39.20
80180;BME280;69505;52.134;5.438;2023-05-27T10:25:55;102805.09;;;23.30;39.17
80180;BME280;69505;52.134;5.438;2023-05-27T10:30:52;102793.22;;;23.14;38.99
80180;BME280;69505;52.134;5.438;2023-05-27T10:33:29;102784.88;;;23.25;36.99
80180;BME280;69505;52.134;5.438;2023-05-27T10:36:03;102790.25;;;22.79;38.23
80180;BME280;69505;52.134;5.438;2023-05-27T10:38:30;102780.56;;;22.49;39.83
80180;BME280;69505;52.134;5.438;2023-05-27T10:40:59;102780.16;;;22.99;39.83
80180;BME280;69505;52.134;5.438;2023-05-27T10:43:29;102782.47;;;22.94;38.05
80180;BME280;69505;52.134;5.438;2023-05-27T10:46:07;102778.56;;;22.79;40.03
80180;BME280;69505;52.134;5.438;2023-05-27T10:48:37;102778.06;;;22.93;41.37
80180;BME280;69505;52.134;5.438;2023-05-27T10:51:06;102773.03;;;22.98;38.79
80180;BME280;69505;52.134;5.438;2023-05-27T10:53:37;102761.63;;;22.95;38.92
80180;BME280;69505;52.134;5.438;2023-05-27T10:56:04;102769.03;;;22.75;38.64
80180;BME280;69505;52.134;5.438;2023-05-27T10:58:36;102758.03;;;22.76;39.29
80180;BME280;69505;52.134;5.438;2023-05-27T11:01:10;102757.81;;;23.15;38.83
80180;BME280;69505;52.134;5.438;2023-05-27T11:03:44;102753.69;;;22.93;38.31
80180;BME280;69505;52.134;5.438;2023-05-27T11:06:12;102752.03;;;23.10;38.41
80180;BME280;69505;52.134;5.438;2023-05-27T11:08:44;102745.34;;;23.40;37.98
80180;BME280;69505;52.134;5.438;2023-05-27T11:11:12;102749.72;;;23.33;36.53
80180;BME280;69505;52.134;5.438;2023-05-27T11:13:42;102739.63;;;23.25;37.89
80180;BME280;69505;52.134;5.438;2023-05-27T11:16:13;102743.66;;;23.39;37.30
80180;BME280;69505;52.134;5.438;2023-05-27T11:18:45;102738.06;;;23.41;38.03
80180;BME280;69505;52.134;5.438;2023-05-27T11:21:15;102732.06;;;23.55;38.02
80180;BME280;69505;52.134;5.438;2023-05-27T11:23:48;102714.63;;;23.58;37.79
80180;BME280;69505;52.134;5.438;2023-05-27T11:26:20;102712.59;;;23.60;37.03
80180;BME280;69505;52.134;5.438;2023-05-27T11:28:51;102705.22;;;23.88;37.56
80180;BME280;69505;52.134;5.438;2023-05-27T11:31:26;102708.81;;;23.97;36.16
80180;BME280;69505;52.134;5.438;2023-05-27T11:33:53;102699.72;;;23.62;37.77
80180;BME280;69505;52.134;5.438;2023-05-27T11:36:20;102699.88;;;23.78;37.57
80180;BME280;69505;52.134;5.438;2023-05-27T11:38:48;102695.91;;;23.73;35.98
80180;BME280;69505;52.134;5.438;2023-05-27T11:41:17;102691.66;;;23.70;36.93
80180;BME280;69505;52.134;5.438;2023-05-27T11:44:09;102688.94;;;23.88;36.30
80180;BME280;69505;52.134;5.438;2023-05-27T11:46:40;102683.34;;;23.98;36.79
80180;BME280;69505;52.134;5.438;2023-05-27T11:49:08;102681.19;;;24.01;34.76
80180;BME280;69505;52.134;5.438;2023-05-27T11:51:39;102672.63;;;23.88;36.66
80180;BME280;69505;52.134;5.438;2023-05-27T11:54:06;102675.88;;;24.26;36.26
80180;BME280;69505;52.134;5.438;2023-05-27T11:56:33;102670.91;;;24.13;36.40
80180;BME280;69505;52.134;5.438;2023-05-27T11:59:00;102656.69;;;24.27;35.66
80180;BME280;69505;52.134;5.438;2023-05-27T12:01:26;102663.47;;;24.31;35.02
80180;BME280;69505;52.134;5.438;2023-05-27T12:03:53;102666.63;;;24.10;33.86
80180;BME280;69505;52.134;5.438;2023-05-27T12:06:20;102656.03;;;24.25;33.52
80180;BME280;69505;52.134;5.438;2023-05-27T12:08:46;102656.97;;;24.16;34.80
80180;BME280;69505;52.134;5.438;2023-05-27T12:11:13;102653.53;;;24.06;32.69
80180;BME280;69505;52.134;5.438;2023-05-27T12:13:40;102649.91;;;24.23;34.67
80180;BME280;69505;52.134;5.438;2023-05-27T12:16:07;102646.66;;;24.20;34.79
80180;BME280;69505;52.134;5.438;2023-05-27T12:18:33;102631.56;;;24.25;34.08
80180;BME280;69505;52.134;5.438;2023-05-27T12:21:00;102644.19;;;24.43;33.30
80180;BME280;69505;52.134;5.438;2023-05-27T12:23:27;102631.78;;;24.40;32.59
80180;BME280;69505;52.134;5.438;2023-05-27T12:25:53;102628.09;;;24.49;33.65
80180;BME280;69505;52.134;5.438;2023-05-27T12:28:20;102629.97;;;24.49;33.91
80180;BME280;69505;52.134;5.438;2023-05-27T12:30:46;102619.97;;;24.58;33.67
80180;BME280;69505;52.134;5.438;2023-05-27T12:33:13;102618.78;;;24.68;34.40
80180;BME280;69505;52.134;5.438;2023-05-27T12:35:40;102616.25;;;24.83;33.04
80180;BME280;69505;52.134;5.438;2023-05-27T12:38:07;102611.50;;;24.94;35.48
80180;BME280;69505;52.134;5.438;2023-05-27T12:40:34;102611.81;;;25.15;33.62
80180;BME280;69505;52.134;5.438;2023-05-27T12:43:01;102609.97;;;24.75;33.21
80180;BME280;69505;52.134;5.438;2023-05-27T12:45:31;102610.28;;;24.63;34.71
80180;BME280;69505;52.134;5.438;2023-05-27T12:47:58;102602.97;;;24.64;32.56
80180;BME280;69505;52.134;5.438;2023-05-27T12:50:25;102603.19;;;24.87;33.39
80180;BME280;69505;52.134;5.438;2023-05-27T12:52:52;102596.19;;;25.01;32.94
80180;BME280;69505;52.134;5.438;2023-05-27T12:55:20;102593.28;;;24.78;32.28
80180;BME280;69505;52.134;5.438;2023-05-27T12:57:49;102589.22;;;24.82;33.72
80180;BME280;69505;52.134;5.438;2023-05-27T13:00:17;102591.09;;;24.89;34.28
80180;BME280;69505;52.134;5.438;2023-05-27T13:02:45;102591.09;;;24.89;34.92
80180;BME280;69505;52.134;5.438;2023-05-27T13:05:14;102588.38;;;24.98;33.88